Time,TemperatureF,DewpointF,PressureIn,WindDirection,WindDirectionDegrees,WindSpeedMPH,WindSpeedGustMPH,Humidity,HourlyPrecipIn,Conditions,Clouds,dailyrainin,SoftwareType,DateUTC
2013-01-19 00:02:00,29.0,29.0,-100.00,NE,40,1.0,2.0,100,-99.99,,,-99.99,,2013-01-19 08:02:00,
2013-01-19 00:10:00,29.0,28.0,-100.00,ESE,115,1.0,2.0,95,-99.99,,,-99.99,,2013-01-19 08:10:00,
2013-01-19 01:02:00,29.0,28.0,-100.00,ESE,115,1.0,2.0,95,-99.99,,,-99.99,,2013-01-19 09:02:00,
2013-01-19 01:10:00,28.0,28.0,-100.00,East,100,2.0,3.0,100,-99.99,,,-99.99,,2013-01-19 09:10:00,
2013-01-19 02:02:00,28.0,28.0,-100.00,East,100,2.0,3.0,100,-99.99,,,-99.99,,2013-01-19 10:02:00,
2013-01-19 02:10:00,28.0,28.0,-100.00,SW,220,1.0,2.0,100,-99.99,,,-99.99,,2013-01-19 10:10:00,
2013-01-19 03:02:00,28.0,28.0,-100.00,SW,220,1.0,2.0,100,-99.99,,,-99.99,,2013-01-19 11:02:00,
2013-01-19 04:10:00,28.0,27.0,-100.00,SSW,195,1.0,1.0,95,-99.99,,,-99.99,,2013-01-19 12:10:00,
2013-01-19 05:02:00,28.0,27.0,-100.00,SSW,195,1.0,1.0,95,-99.99,,,-99.99,,2013-01-19 13:02:00,
2013-01-19 05:10:00,28.0,27.0,-100.00,SSW,195,1.0,2.0,95,-99.99,,,-99.99,,2013-01-19 13:10:00,
2013-01-19 06:02:00,28.0,27.0,-100.00,SSW,195,1.0,2.0,95,-99.99,,,-99.99,,2013-01-19 14:02:00,
2013-01-19 06:10:00,28.0,27.0,-100.00,SW,230,1.0,2.0,95,-99.99,,,-99.99,,2013-01-19 14:10:00,
2013-01-19 07:03:00,28.0,27.0,-100.00,SW,230,1.0,2.0,95,-99.99,,,-99.99,,2013-01-19 15:03:00,
2013-01-19 07:10:00,26.0,26.0,-100.00,ENE,70,1.0,3.0,100,-99.99,,,-99.99,,2013-01-19 15:10:00,
2013-01-19 08:03:00,26.0,26.0,-100.00,ENE,70,1.0,3.0,100,-99.99,,,-99.99,,2013-01-19 16:03:00,
2013-01-19 08:10:00,26.0,25.0,-100.00,North,-999,0.0,0.0,95,-99.99,,,-99.99,,2013-01-19 16:10:00,
2013-01-19 09:02:00,26.0,25.0,-100.00,North,-999,0.0,0.0,95,-99.99,,,-99.99,,2013-01-19 17:02:00,
2013-01-19 09:10:00,27.0,27.0,-100.00,ESE,115,0.0,2.0,100,-99.99,,,-99.99,,2013-01-19 17:10:00,
2013-01-19 10:08:00,27.0,27.0,-100.00,ESE,115,0.0,2.0,100,-99.99,,,-99.99,,2013-01-19 18:08:00,
2013-01-19 10:10:00,29.0,28.0,-100.00,South,185,1.0,3.0,95,-99.99,,,-99.99,,2013-01-19 18:10:00,
2013-01-19 11:06:00,29.0,28.0,-100.00,South,185,1.0,3.0,95,-99.99,,,-99.99,,2013-01-19 19:06:00,
2013-01-19 11:10:00,33.0,32.0,-100.00,WSW,240,1.0,3.0,96,-99.99,,,-99.99,,2013-01-19 19:10:00,
2013-01-19 12:09:00,33.0,32.0,-100.00,WSW,240,1.0,3.0,96,-99.99,,,-99.99,,2013-01-19 20:09:00,
2013-01-19 12:10:00,32.0,31.0,-100.00,WSW,255,2.0,5.0,96,-99.99,,,-99.99,,2013-01-19 20:10:00,
2013-01-19 13:05:00,32.0,31.0,-100.00,WSW,255,2.0,5.0,96,-99.99,,,-99.99,,2013-01-19 21:05:00,
2013-01-19 13:10:00,34.0,31.0,-100.00,WNW,285,1.0,3.0,88,-99.99,,,-99.99,,2013-01-19 21:10:00,
2013-01-19 14:10:00,33.0,31.0,-100.00,SW,235,2.0,5.0,92,-99.99,,,-99.99,,2013-01-19 22:10:00,
2013-01-19 15:10:00,32.0,31.0,-100.00,SW,215,1.0,2.0,96,-99.99,,,-99.99,,2013-01-19 23:10:00,
2013-01-19 16:08:00,32.0,31.0,-100.00,SW,215,1.0,2.0,96,-99.99,,,-99.99,,2013-01-20 00:08:00,
2013-01-19 16:10:00,32.0,31.0,-100.00,WSW,245,2.0,5.0,96,-99.99,,,-99.99,,2013-01-20 00:10:00,
2013-01-19 17:03:00,32.0,31.0,-100.00,WSW,245,2.0,5.0,96,-99.99,,,-99.99,,2013-01-20 01:03:00,
2013-01-19 17:10:00,31.0,30.0,-100.00,NW,320,0.0,3.0,96,-99.99,,,-99.99,,2013-01-20 01:10:00,
2013-01-19 18:05:00,31.0,30.0,-100.00,NW,320,0.0,3.0,96,-99.99,,,-99.99,,2013-01-20 02:05:00,
2013-01-19 18:10:00,30.0,30.0,-100.00,SE,125,1.0,3.0,100,-99.99,,,-99.99,,2013-01-20 02:10:00,
2013-01-19 19:07:00,30.0,30.0,-100.00,SE,125,1.0,3.0,100,-99.99,,,-99.99,,2013-01-20 03:07:00,
2013-01-19 19:10:00,30.0,29.0,-100.00,SE,135,1.0,2.0,96,-99.99,,,-99.99,,2013-01-20 03:10:00,
2013-01-19 20:04:00,30.0,29.0,-100.00,SE,135,1.0,2.0,96,-99.99,,,-99.99,,2013-01-20 04:04:00,
2013-01-19 20:10:00,30.0,29.0,-100.00,WNW,295,1.0,3.0,96,-99.99,,,-99.99,,2013-01-20 04:10:00,
2013-01-19 21:03:00,30.0,29.0,-100.00,WNW,295,1.0,3.0,96,-99.99,,,-99.99,,2013-01-20 05:03:00,
2013-01-19 21:10:00,29.0,29.0,-100.00,North,5,1.0,1.0,100,-99.99,,,-99.99,,2013-01-20 05:10:00,
2013-01-19 22:02:00,29.0,29.0,-100.00,North,5,1.0,1.0,100,-99.99,,,-99.99,,2013-01-20 06:02:00,
2013-01-19 22:10:00,28.0,28.0,-100.00,NNW,345,1.0,2.0,100,-99.99,,,-99.99,,2013-01-20 06:10:00,
2013-01-19 23:02:00,28.0,28.0,-100.00,NNW,345,1.0,2.0,100,-99.99,,,-99.99,,2013-01-20 07:02:00,
2013-01-19 23:10:00,28.0,28.0,-100.00,East,80,0.0,1.0,100,-99.99,,,-99.99,,2013-01-20 07:10:00,